Alta, WY

11:41 AM MDT on August 25, 2019 (GMT -0600)
Targhee town | | Change Station
Active Advisory: Fire Weather Warning

Elev 6440 ft 43.76 °N, 111.04 °W | Updated 9 seconds ago

Clear
Clear
73 °F
Feels Like 76 °F
N
24.4
Wind Variable Wind from SSW
Gusts 27.5 mph

Today
High -- | Low -- °F
--% Chance of Precip.
Yesterday
High -- | Low -- °F
Precip. -- in
Pressure 29.88 in
Visibility 10.0 miles
Clouds Clear
Heat Index 76 °F
Dew Point 34 °F
Humidity 24%
Rainfall 0.00 in
Snow Depth Not available.
6:39 AM 8:11 PM
Waning Crescent, 28% visible
METAR KDIJ 251656Z AUTO 24025G32KT 10SM CLR 23/00 A3010 RMK AO2 PK WND 24032/1655 SLP116 T02330000 $
Pressure 29.88 in
Visibility 10.0 miles
Clouds Clear
Heat Index 76 °F
Dew Point 34 °F
Humidity 24%
Rainfall 0.00 in
Snow Depth Not available.
6:39 AM 8:11 PM
Waning Crescent, 28% visible
METAR KDIJ 251656Z AUTO 24025G32KT 10SM CLR 23/00 A3010 RMK AO2 PK WND 24032/1655 SLP116 T02330000 $

Get Your Daily Forecast Email!

Thanks for signing up!

Be on the lookout for a verification email in your inbox.

You'll start receiving severe weather alerts in your inbox..

×

10-Day Weather Forecast

Almanac

Astronomy

Aug. 25, 2019 Rise Set
Actual Time
Civil Twilight
Nautical Twilight
Astronomical Twilight
Moon
Length of Visible Light
Length of Day
Tomorrow will be .
, % of the Moon is Illuminated

Today's Extremes

State Highs State Lows

Community

WunderPhotos

Category 6

Welcome to Category 6. This is the collective home for Weather Underground's featured writeups by Dr. Jeff Masters (right), Bob Henson (left), Chris Burt, and other regular contributors.

Nearby

Air Quality

  Air Quality AQ Index Pollutant
Not available.

Snow Depth

Station Depth Elevation

Earthquake Activity

City Distance Mag. Time & Date
Minimum magnitude displayed is 2.5.

Coastal Water Temperatures

Place Temperature

Stations

Nearby Weather Stations

Station Location Temp. Windchill Dew Point Humidity Wind Precip. Elev Updated Type
                   

Watches & Warnings

Fire Weather Warning
Issued: 1:25 AM MDT Aug. 25, 2019 – National Weather Service

... Red flag warning remains in effect from 10 am this morning to
8 PM MDT this evening...

* impacts: low humidities and strong gusty winds will create
erratic fire behavior and new fire starts.

* Affected area:
in northwest WY fire zone... .415.
In west central WY fire zone... .414.

* Wind: west 20 to 30 mph with gusts up to 45 mph at the higher
elevations.

* Humidity: as low as 15 percent.

* Counties affected:
in central WY... Fremont.
In north central WY... park.
In west central WY... Lincoln... Sublette... Teton.

Precautionary/preparedness actions...

A red flag warning means that critical fire weather conditions are
either occurring now... .or will shortly. A combination of strong
winds... low relative humidity... and warm temperatures can
contribute to extreme fire behavior.